Larkspur, California
Current Conditions -  °F | °C
As of 4:53 PM on Tuesday 27 Jan 2015 (Local Time) from KOAK Reporting Station
Broken Clouds Broken Clouds  
Wind Chill: 62°   Ceiling: 18000
Heat Index: 62°   Visibility: 10mi
Dew Point: 46°   Wind: 7mph
Humidity: 56%   Direction: 310°NW
Pressure: 30.21"   Gusts: NA
Location:  37.93°N, 122.53°W
Report Text: KOAK 280053Z 31006KT 10SM SCT110 SCT130 BKN180 17/08 A3021 RMK AO2 SLP229 T01670078
Loading
Personal Weather Stations






























Interactive Weather Map New forecast layout! Learn more

10-Day Weather Forecast

Advertisements
Track Severe Weather on mobile